Minooka, IL

9:09 PM CST on January 21, 2017 (GMT -0600)
Rivers Edge Landing - Hallwood Gardens | | Change Station
Active Advisory: Flood Advisory

Elev 581 ft 41.45 °N, 88.24 °W | Updated 6 seconds ago

Overcast
Overcast
36.2 °F
Feels Like 36 °F
N
0.0
Wind Variable Wind from NE

Today
High -- | Low -- °F
--% Chance of Precip.
Yesterday
High -- | Low -- °F
Precip. -- in
Pressure 29.59 in
Visibility 0.2 miles
Clouds
Windchill 36 °F
Dew Point 35 °F
Humidity 95%
Rainfall 0.00 in
Snow Depth Not available.
7:13 AM 4:55 PM
Waning Crescent, 30% visible
METAR KJOT 220255Z AUTO 00000KT 1/4SM FG VV002 03/03 A2959 RMK AO2 T00290029
Pressure 29.59 in
Visibility 0.2 miles
Clouds
Windchill 36 °F
Dew Point 35 °F
Humidity 95%
Rainfall 0.00 in
Snow Depth Not available.
7:13 AM 4:55 PM
Waning Crescent, 30% visible
METAR KJOT 220255Z AUTO 00000KT 1/4SM FG VV002 03/03 A2959 RMK AO2 T00290029

Get Your Daily Forecast Email!

Thanks for signing up!

Be on the lookout for a verification email in your inbox.

You'll start receiving the daily forecast at 8 AM.

×

10-Day Weather Forecast

Almanac

Astronomy

Jan. 21, 2017 Rise Set
Actual Time
Civil Twilight
Nautical Twilight
Astronomical Twilight
Moon
Length of Visible Light
Length of Day
Tomorrow will be .
, % of the Moon is Illuminated

Today's Extremes

State Highs State Lows

Community

WunderPhotos

Upload Photos

1,962,540 photos uploaded!

WunderBlog® & News

Nearby

Air Quality

  Air Quality AQ Index Pollutant
Not available.

Snow Depth

Station Depth Elevation

Earthquake Activity

City Distance Mag. Time & Date
Minimum magnitude displayed is 2.5.

Coastal Water Temperatures

Place Temperature

Stations

Nearby Weather Stations

Station Location Temp. Windchill Dew Point Humidity Wind Precip. Elev Updated Type
                   

Watches & Warnings

Flood Advisory
Issued: 10:59 AM CST Jan. 21, 2017 – National Weather Service

The Flood Advisory continues for
the Illinois River at Morris
* until Sunday evening.
* At 1045 am Saturday the stage was 14.3 feet.
* Action stage is 13.0 feet.
* Flood stage is 16.0 feet.
* Forecast... the river will continue to fall.


Lat... Lon 4143 8827 4134 8860 4135 8868 4127 8868
      4127 8860 4135 8826